sensor_id;sensor_type;location;lat;lon;timestamp;P1;durP1;ratioP1;P2;durP2;ratioP2
13463;SDS011;6804;48.774;9.174;2023-03-01T00:01:44;15.13;;;10.50;;
13463;SDS011;6804;48.774;9.174;2023-03-01T00:04:14;13.73;;;9.80;;
13463;SDS011;6804;48.774;9.174;2023-03-01T00:06:42;15.13;;;9.73;;
13463;SDS011;6804;48.774;9.174;2023-03-01T00:09:16;13.57;;;10.30;;
13463;SDS011;6804;48.774;9.174;2023-03-01T00:11:51;14.20;;;10.63;;
13463;SDS011;6804;48.774;9.174;2023-03-01T00:14:18;12.00;;;9.27;;
13463;SDS011;6804;48.774;9.174;2023-03-01T00:16:47;13.73;;;10.37;;
13463;SDS011;6804;48.774;9.174;2023-03-01T00:19:16;13.83;;;9.90;;
13463;SDS011;6804;48.774;9.174;2023-03-01T00:21:44;14.30;;;10.47;;
13463;SDS011;6804;48.774;9.174;2023-03-01T00:24:12;11.93;;;9.47;;
13463;SDS011;6804;48.774;9.174;2023-03-01T00:26:39;13.43;;;9.77;;
13463;SDS011;6804;48.774;9.174;2023-03-01T00:29:08;14.27;;;10.23;;
13463;SDS011;6804;48.774;9.174;2023-03-01T00:31:35;14.10;;;10.60;;
13463;SDS011;6804;48.774;9.174;2023-03-01T00:34:03;13.60;;;9.63;;
13463;SDS011;6804;48.774;9.174;2023-03-01T00:36:35;15.33;;;10.67;;
13463;SDS011;6804;48.774;9.174;2023-03-01T00:39:03;14.70;;;10.63;;
13463;SDS011;6804;48.774;9.174;2023-03-01T00:41:33;13.03;;;9.70;;
13463;SDS011;6804;48.774;9.174;2023-03-01T00:44:00;14.43;;;10.40;;
13463;SDS011;6804;48.774;9.174;2023-03-01T00:46:29;13.50;;;10.20;;
13463;SDS011;6804;48.774;9.174;2023-03-01T00:48:56;11.70;;;9.67;;
13463;SDS011;6804;48.774;9.174;2023-03-01T00:51:30;13.13;;;10.07;;
13463;SDS011;6804;48.774;9.174;2023-03-01T00:54:00;14.33;;;10.10;;
13463;SDS011;6804;48.774;9.174;2023-03-01T00:56:28;14.33;;;10.57;;
13463;SDS011;6804;48.774;9.174;2023-03-01T00:58:56;12.57;;;10.00;;
13463;SDS011;6804;48.774;9.174;2023-03-01T01:01:28;13.33;;;10.30;;
13463;SDS011;6804;48.774;9.174;2023-03-01T01:04:00;15.63;;;10.20;;
13463;SDS011;6804;48.774;9.174;2023-03-01T01:06:31;13.03;;;9.67;;
13463;SDS011;6804;48.774;9.174;2023-03-01T01:08:59;14.20;;;10.00;;
13463;SDS011;6804;48.774;9.174;2023-03-01T01:11:27;13.57;;;10.10;;
13463;SDS011;6804;48.774;9.174;2023-03-01T01:13:56;13.60;;;10.23;;
13463;SDS011;6804;48.774;9.174;2023-03-01T01:16:26;11.63;;;9.60;;
13463;SDS011;6804;48.774;9.174;2023-03-01T01:18:57;14.03;;;10.50;;
13463;SDS011;6804;48.774;9.174;2023-03-01T01:21:27;12.87;;;10.43;;
13463;SDS011;6804;48.774;9.174;2023-03-01T01:23:56;15.53;;;10.70;;
13463;SDS011;6804;48.774;9.174;2023-03-01T01:26:24;14.80;;;9.77;;
13463;SDS011;6804;48.774;9.174;2023-03-01T01:28:54;13.60;;;10.37;;
13463;SDS011;6804;48.774;9.174;2023-03-01T01:31:21;14.77;;;10.67;;
13463;SDS011;6804;48.774;9.174;2023-03-01T01:33:49;16.03;;;10.60;;
13463;SDS011;6804;48.774;9.174;2023-03-01T01:36:21;13.33;;;9.43;;
13463;SDS011;6804;48.774;9.174;2023-03-01T01:38:50;11.47;;;9.10;;
13463;SDS011;6804;48.774;9.174;2023-03-01T01:41:17;11.17;;;9.00;;
13463;SDS011;6804;48.774;9.174;2023-03-01T01:43:48;13.10;;;9.17;;
13463;SDS011;6804;48.774;9.174;2023-03-01T01:46:30;12.83;;;9.40;;
13463;SDS011;6804;48.774;9.174;2023-03-01T01:49:00;13.13;;;9.87;;
13463;SDS011;6804;48.774;9.174;2023-03-01T01:51:32;12.87;;;10.13;;
13463;SDS011;6804;48.774;9.174;2023-03-01T01:54:08;12.90;;;9.57;;
13463;SDS011;6804;48.774;9.174;2023-03-01T01:56:38;11.70;;;9.30;;
13463;SDS011;6804;48.774;9.174;2023-03-01T01:59:16;12.13;;;9.30;;
13463;SDS011;6804;48.774;9.174;2023-03-01T02:01:49;12.90;;;10.30;;
13463;SDS011;6804;48.774;9.174;2023-03-01T02:04:17;12.83;;;9.77;;
13463;SDS011;6804;48.774;9.174;2023-03-01T02:06:48;12.43;;;8.90;;
13463;SDS011;6804;48.774;9.174;2023-03-01T02:09:21;12.87;;;9.87;;
13463;SDS011;6804;48.774;9.174;2023-03-01T02:11:50;13.60;;;9.43;;
13463;SDS011;6804;48.774;9.174;2023-03-01T02:14:18;12.97;;;9.87;;
13463;SDS011;6804;48.774;9.174;2023-03-01T02:16:46;13.43;;;10.40;;
13463;SDS011;6804;48.774;9.174;2023-03-01T02:19:18;15.10;;;10.73;;
13463;SDS011;6804;48.774;9.174;2023-03-01T02:22:00;11.93;;;9.60;;
13463;SDS011;6804;48.774;9.174;2023-03-01T02:24:35;11.20;;;8.93;;
13463;SDS011;6804;48.774;9.174;2023-03-01T02:27:10;12.10;;;9.83;;
13463;SDS011;6804;48.774;9.174;2023-03-01T02:29:39;14.13;;;10.33;;
13463;SDS011;6804;48.774;9.174;2023-03-01T02:32:09;11.13;;;9.17;;
13463;SDS011;6804;48.774;9.174;2023-03-01T02:34:37;12.07;;;9.57;;
13463;SDS011;6804;48.774;9.174;2023-03-01T02:37:07;12.30;;;10.17;;
13463;SDS011;6804;48.774;9.174;2023-03-01T02:39:39;12.00;;;9.53;;
13463;SDS011;6804;48.774;9.174;2023-03-01T02:42:09;13.77;;;9.77;;
13463;SDS011;6804;48.774;9.174;2023-03-01T02:44:40;12.43;;;10.37;;
13463;SDS011;6804;48.774;9.174;2023-03-01T02:47:08;14.10;;;10.10;;
13463;SDS011;6804;48.774;9.174;2023-03-01T02:49:36;12.70;;;10.13;;
13463;SDS011;6804;48.774;9.174;2023-03-01T02:55:01;11.63;;;10.40;;
13463;SDS011;6804;48.774;9.174;2023-03-01T02:57:31;13.90;;;9.40;;
13463;SDS011;6804;48.774;9.174;2023-03-01T03:00:02;13.10;;;10.43;;
13463;SDS011;6804;48.774;9.174;2023-03-01T03:02:33;13.80;;;10.57;;
13463;SDS011;6804;48.774;9.174;2023-03-01T03:05:05;12.57;;;10.00;;
13463;SDS011;6804;48.774;9.174;2023-03-01T03:07:35;16.20;;;10.47;;
13463;SDS011;6804;48.774;9.174;2023-03-01T03:10:05;14.87;;;11.30;;
13463;SDS011;6804;48.774;9.174;2023-03-01T03:12:34;14.63;;;10.47;;
13463;SDS011;6804;48.774;9.174;2023-03-01T03:15:04;12.67;;;10.30;;
13463;SDS011;6804;48.774;9.174;2023-03-01T03:17:34;12.23;;;10.27;;
13463;SDS011;6804;48.774;9.174;2023-03-01T03:20:01;13.87;;;10.57;;
13463;SDS011;6804;48.774;9.174;2023-03-01T03:22:36;13.57;;;10.60;;
13463;SDS011;6804;48.774;9.174;2023-03-01T03:25:03;17.20;;;10.60;;
13463;SDS011;6804;48.774;9.174;2023-03-01T03:27:34;13.97;;;11.37;;
13463;SDS011;6804;48.774;9.174;2023-03-01T03:30:01;13.97;;;10.50;;
13463;SDS011;6804;48.774;9.174;2023-03-01T03:32:35;14.77;;;11.00;;
13463;SDS011;6804;48.774;9.174;2023-03-01T03:35:02;15.07;;;11.23;;
13463;SDS011;6804;48.774;9.174;2023-03-01T03:37:35;12.37;;;10.23;;
13463;SDS011;6804;48.774;9.174;2023-03-01T03:40:20;15.73;;;10.53;;
13463;SDS011;6804;48.774;9.174;2023-03-01T03:42:47;12.63;;;10.00;;
13463;SDS011;6804;48.774;9.174;2023-03-01T03:45:15;13.03;;;10.07;;
13463;SDS011;6804;48.774;9.174;2023-03-01T03:47:46;13.47;;;10.23;;
13463;SDS011;6804;48.774;9.174;2023-03-01T03:50:16;12.63;;;10.50;;
13463;SDS011;6804;48.774;9.174;2023-03-01T03:52:46;14.30;;;10.50;;
13463;SDS011;6804;48.774;9.174;2023-03-01T03:55:13;14.53;;;10.83;;
13463;SDS011;6804;48.774;9.174;2023-03-01T03:57:44;13.53;;;10.80;;
13463;SDS011;6804;48.774;9.174;2023-03-01T04:00:17;14.17;;;11.27;;
13463;SDS011;6804;48.774;9.174;2023-03-01T04:02:47;13.43;;;10.33;;
13463;SDS011;6804;48.774;9.174;2023-03-01T04:05:15;12.90;;;10.53;;
13463;SDS011;6804;48.774;9.174;2023-03-01T04:07:44;13.67;;;10.90;;
13463;SDS011;6804;48.774;9.174;2023-03-01T04:10:13;15.27;;;11.30;;
13463;SDS011;6804;48.774;9.174;2023-03-01T04:12:41;13.60;;;10.73;;
13463;SDS011;6804;48.774;9.174;2023-03-01T04:15:10;14.90;;;10.47;;
13463;SDS011;6804;48.774;9.174;2023-03-01T04:17:41;13.63;;;10.93;;
13463;SDS011;6804;48.774;9.174;2023-03-01T04:20:12;14.73;;;11.07;;
13463;SDS011;6804;48.774;9.174;2023-03-01T04:22:42;13.57;;;10.77;;
13463;SDS011;6804;48.774;9.174;2023-03-01T04:25:12;15.23;;;10.80;;
13463;SDS011;6804;48.774;9.174;2023-03-01T04:27:40;15.67;;;11.10;;
13463;SDS011;6804;48.774;9.174;2023-03-01T04:30:08;14.27;;;11.47;;
13463;SDS011;6804;48.774;9.174;2023-03-01T04:32:36;13.73;;;10.90;;
13463;SDS011;6804;48.774;9.174;2023-03-01T04:35:05;15.47;;;11.57;;
13463;SDS011;6804;48.774;9.174;2023-03-01T04:37:36;14.37;;;11.03;;
13463;SDS011;6804;48.774;9.174;2023-03-01T04:40:06;15.07;;;11.53;;
13463;SDS011;6804;48.774;9.174;2023-03-01T04:42:41;12.63;;;10.63;;
13463;SDS011;6804;48.774;9.174;2023-03-01T04:45:08;16.23;;;11.27;;
13463;SDS011;6804;48.774;9.174;2023-03-01T04:47:46;15.10;;;11.23;;
13463;SDS011;6804;48.774;9.174;2023-03-01T04:50:17;12.27;;;10.97;;
13463;SDS011;6804;48.774;9.174;2023-03-01T04:52:50;15.03;;;10.73;;
13463;SDS011;6804;48.774;9.174;2023-03-01T04:55:18;15.53;;;11.53;;
13463;SDS011;6804;48.774;9.174;2023-03-01T04:57:45;16.13;;;11.23;;
13463;SDS011;6804;48.774;9.174;2023-03-01T05:00:14;14.47;;;11.23;;
13463;SDS011;6804;48.774;9.174;2023-03-01T05:02:46;15.93;;;11.80;;
13463;SDS011;6804;48.774;9.174;2023-03-01T05:05:18;13.77;;;10.87;;
13463;SDS011;6804;48.774;9.174;2023-03-01T05:07:52;14.87;;;11.27;;
13463;SDS011;6804;48.774;9.174;2023-03-01T05:10:26;17.17;;;12.27;;
13463;SDS011;6804;48.774;9.174;2023-03-01T05:12:55;16.13;;;11.93;;
13463;SDS011;6804;48.774;9.174;2023-03-01T05:15:23;14.83;;;11.27;;
13463;SDS011;6804;48.774;9.174;2023-03-01T05:17:55;16.20;;;11.00;;
13463;SDS011;6804;48.774;9.174;2023-03-01T05:20:24;13.93;;;10.97;;
13463;SDS011;6804;48.774;9.174;2023-03-01T05:22:54;17.87;;;11.90;;
13463;SDS011;6804;48.774;9.174;2023-03-01T05:25:23;16.37;;;11.97;;
13463;SDS011;6804;48.774;9.174;2023-03-01T05:27:58;18.13;;;12.20;;
13463;SDS011;6804;48.774;9.174;2023-03-01T05:30:29;14.23;;;12.17;;
13463;SDS011;6804;48.774;9.174;2023-03-01T05:32:58;17.20;;;11.40;;
13463;SDS011;6804;48.774;9.174;2023-03-01T05:35:25;17.00;;;11.80;;
13463;SDS011;6804;48.774;9.174;2023-03-01T05:37:59;19.97;;;12.43;;
13463;SDS011;6804;48.774;9.174;2023-03-01T05:40:26;15.20;;;11.13;;
13463;SDS011;6804;48.774;9.174;2023-03-01T05:42:55;13.70;;;11.10;;
13463;SDS011;6804;48.774;9.174;2023-03-01T05:45:24;15.47;;;11.07;;
13463;SDS011;6804;48.774;9.174;2023-03-01T05:47:57;15.07;;;11.43;;
13463;SDS011;6804;48.774;9.174;2023-03-01T05:50:26;15.63;;;11.87;;
13463;SDS011;6804;48.774;9.174;2023-03-01T05:53:02;15.83;;;11.30;;
13463;SDS011;6804;48.774;9.174;2023-03-01T05:55:31;16.23;;;11.83;;
13463;SDS011;6804;48.774;9.174;2023-03-01T05:57:59;15.47;;;11.37;;
13463;SDS011;6804;48.774;9.174;2023-03-01T06:00:28;16.10;;;11.47;;
13463;SDS011;6804;48.774;9.174;2023-03-01T06:02:56;16.60;;;12.23;;
13463;SDS011;6804;48.774;9.174;2023-03-01T06:05:25;13.17;;;10.43;;
13463;SDS011;6804;48.774;9.174;2023-03-01T06:07:53;15.23;;;10.67;;
13463;SDS011;6804;48.774;9.174;2023-03-01T06:10:26;15.90;;;11.23;;
13463;SDS011;6804;48.774;9.174;2023-03-01T06:12:54;14.87;;;11.13;;
13463;SDS011;6804;48.774;9.174;2023-03-01T06:15:25;14.03;;;10.90;;
13463;SDS011;6804;48.774;9.174;2023-03-01T06:17:55;16.03;;;11.60;;
13463;SDS011;6804;48.774;9.174;2023-03-01T06:20:26;16.10;;;11.33;;
13463;SDS011;6804;48.774;9.174;2023-03-01T06:22:55;17.20;;;11.60;;
13463;SDS011;6804;48.774;9.174;2023-03-01T06:25:27;15.23;;;11.07;;
13463;SDS011;6804;48.774;9.174;2023-03-01T06:27:55;14.60;;;11.07;;
13463;SDS011;6804;48.774;9.174;2023-03-01T06:30:25;14.37;;;11.07;;
13463;SDS011;6804;48.774;9.174;2023-03-01T06:32:53;13.70;;;10.90;;
13463;SDS011;6804;48.774;9.174;2023-03-01T06:35:26;16.50;;;12.50;;
13463;SDS011;6804;48.774;9.174;2023-03-01T06:37:56;16.50;;;12.03;;
13463;SDS011;6804;48.774;9.174;2023-03-01T06:40:25;13.77;;;11.33;;
13463;SDS011;6804;48.774;9.174;2023-03-01T06:42:56;15.37;;;12.20;;
13463;SDS011;6804;48.774;9.174;2023-03-01T06:45:27;16.23;;;11.67;;
13463;SDS011;6804;48.774;9.174;2023-03-01T06:48:01;15.10;;;11.50;;
13463;SDS011;6804;48.774;9.174;2023-03-01T06:50:29;16.67;;;11.63;;
13463;SDS011;6804;48.774;9.174;2023-03-01T06:53:00;18.20;;;12.97;;
13463;SDS011;6804;48.774;9.174;2023-03-01T06:55:29;15.87;;;11.57;;
13463;SDS011;6804;48.774;9.174;2023-03-01T06:58:00;16.37;;;12.23;;
13463;SDS011;6804;48.774;9.174;2023-03-01T07:00:29;17.10;;;11.80;;
13463;SDS011;6804;48.774;9.174;2023-03-01T07:02:58;17.00;;;12.77;;
13463;SDS011;6804;48.774;9.174;2023-03-01T07:05:32;14.93;;;11.43;;
13463;SDS011;6804;48.774;9.174;2023-03-01T07:08:03;19.17;;;13.10;;
13463;SDS011;6804;48.774;9.174;2023-03-01T07:10:33;17.40;;;11.90;;
13463;SDS011;6804;48.774;9.174;2023-03-01T07:13:00;15.77;;;12.00;;
13463;SDS011;6804;48.774;9.174;2023-03-01T07:15:28;18.00;;;11.90;;
13463;SDS011;6804;48.774;9.174;2023-03-01T07:17:58;15.80;;;12.83;;
13463;SDS011;6804;48.774;9.174;2023-03-01T07:20:29;16.27;;;12.13;;
13463;SDS011;6804;48.774;9.174;2023-03-01T07:22:58;16.67;;;12.93;;
13463;SDS011;6804;48.774;9.174;2023-03-01T07:25:27;16.97;;;12.37;;
13463;SDS011;6804;48.774;9.174;2023-03-01T07:28:02;19.10;;;12.40;;
13463;SDS011;6804;48.774;9.174;2023-03-01T07:30:30;18.03;;;12.80;;
13463;SDS011;6804;48.774;9.174;2023-03-01T07:32:57;17.57;;;12.87;;
13463;SDS011;6804;48.774;9.174;2023-03-01T07:35:26;17.17;;;12.67;;
13463;SDS011;6804;48.774;9.174;2023-03-01T07:37:54;18.53;;;12.87;;
13463;SDS011;6804;48.774;9.174;2023-03-01T07:40:21;17.27;;;13.07;;
13463;SDS011;6804;48.774;9.174;2023-03-01T07:42:48;16.70;;;11.87;;
13463;SDS011;6804;48.774;9.174;2023-03-01T07:45:25;16.00;;;13.17;;
13463;SDS011;6804;48.774;9.174;2023-03-01T07:47:52;19.00;;;13.80;;
13463;SDS011;6804;48.774;9.174;2023-03-01T07:50:20;17.10;;;12.80;;
13463;SDS011;6804;48.774;9.174;2023-03-01T07:52:49;19.83;;;13.00;;
13463;SDS011;6804;48.774;9.174;2023-03-01T07:55:22;17.23;;;13.50;;
13463;SDS011;6804;48.774;9.174;2023-03-01T07:57:50;16.97;;;13.03;;
13463;SDS011;6804;48.774;9.174;2023-03-01T08:00:17;17.03;;;12.40;;
13463;SDS011;6804;48.774;9.174;2023-03-01T08:02:53;16.90;;;12.53;;
13463;SDS011;6804;48.774;9.174;2023-03-01T08:05:23;17.77;;;12.87;;
13463;SDS011;6804;48.774;9.174;2023-03-01T08:07:50;18.43;;;13.13;;
13463;SDS011;6804;48.774;9.174;2023-03-01T08:10:21;16.67;;;13.17;;
13463;SDS011;6804;48.774;9.174;2023-03-01T08:12:50;15.47;;;12.33;;
13463;SDS011;6804;48.774;9.174;2023-03-01T08:15:24;14.97;;;11.87;;
13463;SDS011;6804;48.774;9.174;2023-03-01T08:17:56;18.20;;;12.63;;
13463;SDS011;6804;48.774;9.174;2023-03-01T08:20:23;15.80;;;12.93;;
13463;SDS011;6804;48.774;9.174;2023-03-01T08:22:53;17.50;;;13.53;;
13463;SDS011;6804;48.774;9.174;2023-03-01T08:25:24;21.70;;;14.57;;
13463;SDS011;6804;48.774;9.174;2023-03-01T08:27:54;17.80;;;13.07;;
13463;SDS011;6804;48.774;9.174;2023-03-01T08:30:21;17.40;;;13.93;;
13463;SDS011;6804;48.774;9.174;2023-03-01T08:32:49;17.43;;;13.17;;
13463;SDS011;6804;48.774;9.174;2023-03-01T08:35:22;20.20;;;13.17;;
13463;SDS011;6804;48.774;9.174;2023-03-01T08:37:49;16.47;;;13.07;;
13463;SDS011;6804;48.774;9.174;2023-03-01T08:40:19;18.40;;;14.13;;
13463;SDS011;6804;48.774;9.174;2023-03-01T08:42:47;15.60;;;12.93;;
13463;SDS011;6804;48.774;9.174;2023-03-01T08:45:19;17.80;;;13.53;;
13463;SDS011;6804;48.774;9.174;2023-03-01T08:47:47;18.10;;;13.10;;
13463;SDS011;6804;48.774;9.174;2023-03-01T08:50:18;18.03;;;13.13;;
13463;SDS011;6804;48.774;9.174;2023-03-01T08:52:47;16.63;;;13.73;;
13463;SDS011;6804;48.774;9.174;2023-03-01T08:55:16;16.27;;;13.20;;
13463;SDS011;6804;48.774;9.174;2023-03-01T08:57:44;18.80;;;13.67;;
13463;SDS011;6804;48.774;9.174;2023-03-01T09:00:14;16.87;;;12.00;;
13463;SDS011;6804;48.774;9.174;2023-03-01T09:02:42;17.23;;;13.53;;
13463;SDS011;6804;48.774;9.174;2023-03-01T09:05:25;19.20;;;12.73;;
13463;SDS011;6804;48.774;9.174;2023-03-01T09:07:54;17.50;;;13.27;;
13463;SDS011;6804;48.774;9.174;2023-03-01T09:10:24;17.47;;;12.80;;
13463;SDS011;6804;48.774;9.174;2023-03-01T09:12:53;18.73;;;13.63;;
13463;SDS011;6804;48.774;9.174;2023-03-01T09:15:21;18.13;;;14.07;;
13463;SDS011;6804;48.774;9.174;2023-03-01T09:17:53;17.73;;;13.70;;
13463;SDS011;6804;48.774;9.174;2023-03-01T09:20:23;15.60;;;13.30;;
13463;SDS011;6804;48.774;9.174;2023-03-01T09:22:53;17.43;;;13.43;;
13463;SDS011;6804;48.774;9.174;2023-03-01T09:25:24;16.00;;;13.10;;
13463;SDS011;6804;48.774;9.174;2023-03-01T09:27:52;18.37;;;12.90;;
13463;SDS011;6804;48.774;9.174;2023-03-01T09:30:22;17.47;;;13.50;;
13463;SDS011;6804;48.774;9.174;2023-03-01T09:33:01;16.53;;;13.33;;
13463;SDS011;6804;48.774;9.174;2023-03-01T09:35:34;16.97;;;13.57;;
13463;SDS011;6804;48.774;9.174;2023-03-01T09:38:05;19.63;;;14.23;;
13463;SDS011;6804;48.774;9.174;2023-03-01T09:40:33;16.77;;;14.03;;
13463;SDS011;6804;48.774;9.174;2023-03-01T09:43:02;19.33;;;14.40;;
13463;SDS011;6804;48.774;9.174;2023-03-01T09:45:44;18.27;;;13.80;;
13463;SDS011;6804;48.774;9.174;2023-03-01T09:48:16;23.23;;;14.20;;
13463;SDS011;6804;48.774;9.174;2023-03-01T09:50:47;18.67;;;14.93;;
13463;SDS011;6804;48.774;9.174;2023-03-01T09:53:17;17.97;;;13.50;;
13463;SDS011;6804;48.774;9.174;2023-03-01T09:55:51;19.07;;;13.57;;
13463;SDS011;6804;48.774;9.174;2023-03-01T09:58:38;15.87;;;13.53;;
13463;SDS011;6804;48.774;9.174;2023-03-01T10:07:09;17.30;;;14.17;;
13463;SDS011;6804;48.774;9.174;2023-03-01T10:09:46;17.17;;;14.13;;
13463;SDS011;6804;48.774;9.174;2023-03-01T10:12:15;13.97;;;11.60;;
13463;SDS011;6804;48.774;9.174;2023-03-01T10:14:50;18.77;;;12.80;;
13463;SDS011;6804;48.774;9.174;2023-03-01T10:17:32;16.67;;;14.53;;
13463;SDS011;6804;48.774;9.174;2023-03-01T10:20:14;15.13;;;12.67;;
13463;SDS011;6804;48.774;9.174;2023-03-01T10:22:47;16.47;;;13.37;;
13463;SDS011;6804;48.774;9.174;2023-03-01T10:25:36;16.17;;;12.87;;
13463;SDS011;6804;48.774;9.174;2023-03-01T10:28:23;16.50;;;13.77;;
13463;SDS011;6804;48.774;9.174;2023-03-01T10:30:53;16.87;;;13.13;;
13463;SDS011;6804;48.774;9.174;2023-03-01T10:33:29;16.93;;;12.00;;
13463;SDS011;6804;48.774;9.174;2023-03-01T10:36:08;17.17;;;12.77;;
13463;SDS011;6804;48.774;9.174;2023-03-01T10:38:49;18.60;;;13.60;;
13463;SDS011;6804;48.774;9.174;2023-03-01T10:41:34;17.03;;;13.47;;
13463;SDS011;6804;48.774;9.174;2023-03-01T10:44:35;16.70;;;13.17;;
13463;SDS011;6804;48.774;9.174;2023-03-01T10:47:09;15.30;;;12.57;;
13463;SDS011;6804;48.774;9.174;2023-03-01T10:52:55;14.80;;;11.77;;
13463;SDS011;6804;48.774;9.174;2023-03-01T10:55:29;14.90;;;11.90;;
13463;SDS011;6804;48.774;9.174;2023-03-01T10:58:17;16.90;;;12.47;;
13463;SDS011;6804;48.774;9.174;2023-03-01T11:00:47;12.53;;;11.10;;
13463;SDS011;6804;48.774;9.174;2023-03-01T11:03:20;18.37;;;12.33;;
13463;SDS011;6804;48.774;9.174;2023-03-01T11:05:59;14.03;;;11.27;;
13463;SDS011;6804;48.774;9.174;2023-03-01T11:08:52;19.20;;;11.87;;
13463;SDS011;6804;48.774;9.174;2023-03-01T11:11:22;16.67;;;14.87;;
13463;SDS011;6804;48.774;9.174;2023-03-01T11:14:06;15.20;;;13.27;;
13463;SDS011;6804;48.774;9.174;2023-03-01T11:16:58;17.87;;;13.20;;
13463;SDS011;6804;48.774;9.174;2023-03-01T11:19:37;17.20;;;13.13;;
13463;SDS011;6804;48.774;9.174;2023-03-01T11:22:07;16.33;;;12.37;;
13463;SDS011;6804;48.774;9.174;2023-03-01T11:24:44;15.07;;;11.73;;
13463;SDS011;6804;48.774;9.174;2023-03-01T11:27:16;15.30;;;12.80;;
13463;SDS011;6804;48.774;9.174;2023-03-01T11:29:50;16.00;;;12.37;;
13463;SDS011;6804;48.774;9.174;2023-03-01T11:32:26;15.33;;;12.20;;
13463;SDS011;6804;48.774;9.174;2023-03-01T11:34:58;15.67;;;11.60;;
13463;SDS011;6804;48.774;9.174;2023-03-01T11:37:36;15.13;;;13.00;;
13463;SDS011;6804;48.774;9.174;2023-03-01T11:40:13;15.23;;;12.60;;
13463;SDS011;6804;48.774;9.174;2023-03-01T11:42:45;14.50;;;10.53;;
13463;SDS011;6804;48.774;9.174;2023-03-01T11:45:30;14.37;;;12.20;;
13463;SDS011;6804;48.774;9.174;2023-03-01T11:48:20;16.33;;;12.43;;
13463;SDS011;6804;48.774;9.174;2023-03-01T11:51:05;15.83;;;13.03;;
13463;SDS011;6804;48.774;9.174;2023-03-01T11:53:54;15.10;;;11.60;;
13463;SDS011;6804;48.774;9.174;2023-03-01T11:56:35;15.30;;;12.67;;
13463;SDS011;6804;48.774;9.174;2023-03-01T11:59:13;16.13;;;11.80;;
13463;SDS011;6804;48.774;9.174;2023-03-01T12:02:22;14.23;;;12.07;;
13463;SDS011;6804;48.774;9.174;2023-03-01T12:05:16;15.13;;;12.47;;
13463;SDS011;6804;48.774;9.174;2023-03-01T12:07:59;14.43;;;11.90;;
13463;SDS011;6804;48.774;9.174;2023-03-01T12:10:42;15.07;;;12.30;;
13463;SDS011;6804;48.774;9.174;2023-03-01T12:13:35;16.40;;;12.57;;
13463;SDS011;6804;48.774;9.174;2023-03-01T12:16:30;14.57;;;11.47;;
13463;SDS011;6804;48.774;9.174;2023-03-01T12:19:20;14.70;;;13.03;;
13463;SDS011;6804;48.774;9.174;2023-03-01T12:22:19;13.03;;;10.03;;
13463;SDS011;6804;48.774;9.174;2023-03-01T12:27:51;15.47;;;9.87;;
13463;SDS011;6804;48.774;9.174;2023-03-01T12:30:50;12.93;;;10.87;;
13463;SDS011;6804;48.774;9.174;2023-03-01T12:33:40;14.93;;;11.90;;
13463;SDS011;6804;48.774;9.174;2023-03-01T12:36:31;14.30;;;11.43;;
13463;SDS011;6804;48.774;9.174;2023-03-01T12:39:17;12.33;;;10.83;;
13463;SDS011;6804;48.774;9.174;2023-03-01T12:42:12;12.37;;;10.23;;
13463;SDS011;6804;48.774;9.174;2023-03-01T12:44:55;15.63;;;11.30;;
13463;SDS011;6804;48.774;9.174;2023-03-01T12:47:46;12.60;;;11.30;;
13463;SDS011;6804;48.774;9.174;2023-03-01T12:50:28;11.67;;;10.47;;
13463;SDS011;6804;48.774;9.174;2023-03-01T12:53:14;13.23;;;11.63;;
13463;SDS011;6804;48.774;9.174;2023-03-01T12:55:50;13.93;;;11.20;;
13463;SDS011;6804;48.774;9.174;2023-03-01T12:58:24;15.53;;;11.30;;
13463;SDS011;6804;48.774;9.174;2023-03-01T13:01:12;13.43;;;10.60;;
13463;SDS011;6804;48.774;9.174;2023-03-01T13:03:53;13.03;;;11.47;;
13463;SDS011;6804;48.774;9.174;2023-03-01T13:06:29;13.87;;;10.47;;
13463;SDS011;6804;48.774;9.174;2023-03-01T13:09:11;11.63;;;10.30;;
13463;SDS011;6804;48.774;9.174;2023-03-01T13:11:47;12.17;;;10.50;;
13463;SDS011;6804;48.774;9.174;2023-03-01T13:14:35;12.80;;;10.43;;
13463;SDS011;6804;48.774;9.174;2023-03-01T13:17:29;12.73;;;10.70;;
13463;SDS011;6804;48.774;9.174;2023-03-01T13:20:10;12.47;;;10.47;;
13463;SDS011;6804;48.774;9.174;2023-03-01T13:22:41;11.97;;;10.77;;
13463;SDS011;6804;48.774;9.174;2023-03-01T13:25:14;13.77;;;11.73;;
13463;SDS011;6804;48.774;9.174;2023-03-01T13:27:44;15.80;;;10.87;;
13463;SDS011;6804;48.774;9.174;2023-03-01T13:36:08;15.37;;;9.77;;
13463;SDS011;6804;48.774;9.174;2023-03-01T13:39:01;19.43;;;11.33;;
13463;SDS011;6804;48.774;9.174;2023-03-01T13:41:52;13.37;;;10.93;;
13463;SDS011;6804;48.774;9.174;2023-03-01T13:44:24;14.47;;;11.60;;
13463;SDS011;6804;48.774;9.174;2023-03-01T13:47:03;13.50;;;11.03;;
13463;SDS011;6804;48.774;9.174;2023-03-01T13:49:42;13.80;;;11.13;;
13463;SDS011;6804;48.774;9.174;2023-03-01T13:52:34;14.27;;;11.27;;
13463;SDS011;6804;48.774;9.174;2023-03-01T13:55:05;16.17;;;13.00;;
13463;SDS011;6804;48.774;9.174;2023-03-01T13:57:46;14.00;;;12.50;;
13463;SDS011;6804;48.774;9.174;2023-03-01T14:00:26;16.60;;;12.93;;
13463;SDS011;6804;48.774;9.174;2023-03-01T14:03:04;15.00;;;11.90;;
13463;SDS011;6804;48.774;9.174;2023-03-01T14:05:56;16.07;;;13.10;;
13463;SDS011;6804;48.774;9.174;2023-03-01T14:08:30;16.33;;;13.40;;
13463;SDS011;6804;48.774;9.174;2023-03-01T14:14:17;16.47;;;13.73;;
13463;SDS011;6804;48.774;9.174;2023-03-01T14:17:20;14.10;;;12.57;;
13463;SDS011;6804;48.774;9.174;2023-03-01T14:19:59;15.33;;;12.37;;
13463;SDS011;6804;48.774;9.174;2023-03-01T14:22:36;17.07;;;12.40;;
13463;SDS011;6804;48.774;9.174;2023-03-01T14:25:28;14.20;;;11.97;;
13463;SDS011;6804;48.774;9.174;2023-03-01T14:28:04;20.10;;;14.33;;
13463;SDS011;6804;48.774;9.174;2023-03-01T14:30:44;18.83;;;15.03;;
13463;SDS011;6804;48.774;9.174;2023-03-01T14:33:19;14.77;;;13.00;;
13463;SDS011;6804;48.774;9.174;2023-03-01T14:35:53;17.23;;;13.93;;
13463;SDS011;6804;48.774;9.174;2023-03-01T14:38:30;15.27;;;12.97;;
13463;SDS011;6804;48.774;9.174;2023-03-01T14:41:05;17.83;;;12.60;;
13463;SDS011;6804;48.774;9.174;2023-03-01T14:43:34;14.50;;;12.57;;
13463;SDS011;6804;48.774;9.174;2023-03-01T14:46:04;14.50;;;12.37;;
13463;SDS011;6804;48.774;9.174;2023-03-01T14:48:32;15.80;;;13.47;;
13463;SDS011;6804;48.774;9.174;2023-03-01T14:51:05;16.17;;;14.10;;
13463;SDS011;6804;48.774;9.174;2023-03-01T14:53:32;15.50;;;13.13;;
13463;SDS011;6804;48.774;9.174;2023-03-01T14:56:03;16.57;;;13.57;;
13463;SDS011;6804;48.774;9.174;2023-03-01T14:58:31;15.93;;;13.47;;
13463;SDS011;6804;48.774;9.174;2023-03-01T15:01:04;16.43;;;12.70;;
13463;SDS011;6804;48.774;9.174;2023-03-01T15:03:38;15.47;;;12.13;;
13463;SDS011;6804;48.774;9.174;2023-03-01T15:06:14;14.30;;;11.43;;
13463;SDS011;6804;48.774;9.174;2023-03-01T15:08:44;15.23;;;12.47;;
13463;SDS011;6804;48.774;9.174;2023-03-01T15:11:19;17.00;;;12.00;;
13463;SDS011;6804;48.774;9.174;2023-03-01T15:13:49;15.07;;;12.87;;
13463;SDS011;6804;48.774;9.174;2023-03-01T15:16:25;16.47;;;12.43;;
13463;SDS011;6804;48.774;9.174;2023-03-01T15:19:06;17.43;;;12.13;;
13463;SDS011;6804;48.774;9.174;2023-03-01T15:21:34;16.60;;;13.73;;
13463;SDS011;6804;48.774;9.174;2023-03-01T15:24:05;15.73;;;13.20;;
13463;SDS011;6804;48.774;9.174;2023-03-01T15:26:43;14.70;;;13.07;;
13463;SDS011;6804;48.774;9.174;2023-03-01T15:29:15;15.23;;;12.80;;
13463;SDS011;6804;48.774;9.174;2023-03-01T15:31:56;15.33;;;13.10;;
13463;SDS011;6804;48.774;9.174;2023-03-01T15:34:25;15.10;;;13.47;;
13463;SDS011;6804;48.774;9.174;2023-03-01T15:36:55;16.30;;;13.00;;